Airport ID:CNV8
Update Time (UTC):19/03/2019 05:28
Wind Speed (Knots):0
Wind Direction (Magnetic):120
Temperature (°C):-3.4
Dew Point (°C):-3.7
Humidity (%):97.8
Altimeter (inHg):30.33
Density Altitude (Feet):
Visibility (Miles):***
Clouds (Hundreds of feet):***
Present Weather:***
METAR:METAR CNV8 190530Z AUTO 00000KT /////NDV ////// M03/M04 A3033

The data displayed is for advisory purposes only and is not to be used for flight planning or operations.

This page is not automatically refreshed. Reload the page to see current data.